Time,TemperatureF,DewpointF,PressureIn,WindDirection,WindDirectionDegrees,WindSpeedMPH,WindSpeedGustMPH,Humidity,HourlyPrecipIn,Conditions,Clouds,dailyrainin,SoftwareType,DateUTC
2013-07-19 00:01:00,71.8,71.2,30.00,NW,304,0.0,0.0,98,0.00,,---,0.66,VWS V14.01,2013-07-19 05:01:00,
2013-07-19 00:06:00,71.8,71.2,30.00,NW,305,0.0,0.0,98,0.00,,---,0.00,VWS V14.01,2013-07-19 05:06:00,
2013-07-19 00:11:00,71.9,71.6,29.99,NW,305,0.0,0.0,99,0.00,,---,0.00,VWS V14.01,2013-07-19 05:11:00,
2013-07-19 00:16:00,71.8,71.5,29.99,NW,305,0.0,0.0,99,0.00,,---,0.00,VWS V14.01,2013-07-19 05:16:00,
2013-07-19 00:21:00,71.8,71.5,29.99,NW,304,0.0,0.0,99,0.00,,---,0.00,VWS V14.01,2013-07-19 05:21:00,
2013-07-19 00:26:00,71.8,71.5,29.99,NW,305,0.0,0.0,99,0.00,,---,0.00,VWS V14.01,2013-07-19 05:26:00,
2013-07-19 00:30:00,71.7,71.4,29.99,NW,304,0.0,0.0,99,0.00,,---,0.00,VWS V14.01,2013-07-19 05:30:00,
2013-07-19 00:35:00,71.8,71.5,29.98,NW,304,0.0,0.0,99,0.00,,---,0.00,VWS V14.01,2013-07-19 05:35:00,
2013-07-19 00:40:00,71.8,71.5,29.98,NW,305,0.0,0.0,99,0.00,,---,0.00,VWS V14.01,2013-07-19 05:40:00,
2013-07-19 00:45:00,71.8,71.5,29.98,NW,305,0.0,0.0,99,0.00,,---,0.00,VWS V14.01,2013-07-19 05:45:00,
2013-07-19 00:50:00,71.8,71.5,29.98,NW,305,0.0,0.0,99,0.00,,---,0.00,VWS V14.01,2013-07-19 05:50:00,
2013-07-19 00:55:00,71.7,71.4,29.98,NW,305,0.0,0.0,99,0.00,,---,0.00,VWS V14.01,2013-07-19 05:55:00,
2013-07-19 01:00:00,71.7,71.4,29.97,NW,305,0.0,0.0,99,0.00,,---,0.00,VWS V14.01,2013-07-19 06:00:00,
2013-07-19 01:05:00,71.7,71.4,29.97,NW,305,0.0,0.0,99,0.00,,---,0.00,VWS V14.01,2013-07-19 06:05:00,
2013-07-19 01:10:00,71.6,71.3,29.97,NW,305,0.0,0.0,99,0.00,,---,0.00,VWS V14.01,2013-07-19 06:10:00,
2013-07-19 01:15:00,71.5,71.2,29.97,NW,305,0.0,0.0,99,0.00,,---,0.00,VWS V14.01,2013-07-19 06:15:00,
2013-07-19 01:20:00,71.6,71.3,29.97,NW,304,0.0,0.0,99,0.00,,---,0.00,VWS V14.01,2013-07-19 06:20:00,
2013-07-19 01:25:00,71.5,71.2,29.96,NW,305,0.0,0.0,99,0.00,,---,0.00,VWS V14.01,2013-07-19 06:25:00,
2013-07-19 01:30:00,71.4,71.1,29.96,NW,305,0.0,0.0,99,0.00,,---,0.00,VWS V14.01,2013-07-19 06:30:00,
2013-07-19 01:35:00,71.3,71.0,29.96,NW,305,0.0,0.0,99,0.00,,---,0.00,VWS V14.01,2013-07-19 06:35:00,
2013-07-19 01:40:00,71.1,70.8,29.96,NW,304,0.0,0.0,99,0.00,,---,0.00,VWS V14.01,2013-07-19 06:40:00,
2013-07-19 01:45:00,71.0,70.7,29.95,NW,305,0.0,0.0,99,0.00,,---,0.00,VWS V14.01,2013-07-19 06:45:00,
2013-07-19 01:50:00,71.0,70.7,29.95,NW,305,0.0,0.0,99,0.00,,---,0.00,VWS V14.01,2013-07-19 06:50:00,
2013-07-19 01:55:00,70.8,70.5,29.95,NW,305,0.0,0.0,99,0.00,,---,0.00,VWS V14.01,2013-07-19 06:55:00,
2013-07-19 02:00:00,70.8,70.5,29.95,NW,304,0.0,0.0,99,0.00,,---,0.00,VWS V14.01,2013-07-19 07:00:00,
2013-07-19 02:05:00,70.8,70.5,29.95,NW,305,0.0,0.0,99,0.00,,---,0.00,VWS V14.01,2013-07-19 07:05:00,
2013-07-19 02:10:00,70.8,70.5,29.95,NW,304,0.0,0.0,99,0.00,,---,0.00,VWS V14.01,2013-07-19 07:10:00,
2013-07-19 02:15:00,70.8,70.5,29.95,NW,305,0.0,0.0,99,0.00,,---,0.00,VWS V14.01,2013-07-19 07:15:00,
2013-07-19 02:20:00,70.8,70.5,29.95,NW,305,0.0,0.0,99,0.00,,---,0.00,VWS V14.01,2013-07-19 07:20:00,
2013-07-19 02:25:00,70.7,70.4,29.95,NW,305,0.0,0.0,99,0.00,,---,0.00,VWS V14.01,2013-07-19 07:25:00,
2013-07-19 02:30:00,70.6,70.3,29.95,NW,305,0.0,0.0,99,0.00,,---,0.00,VWS V14.01,2013-07-19 07:30:00,
2013-07-19 02:35:00,70.7,70.4,29.94,NW,305,0.0,0.0,99,0.00,,---,0.00,VWS V14.01,2013-07-19 07:35:00,
2013-07-19 02:40:00,70.7,70.4,29.94,NW,304,0.0,0.0,99,0.00,,---,0.00,VWS V14.01,2013-07-19 07:40:00,
2013-07-19 02:45:00,70.7,70.4,29.94,NW,305,0.0,0.0,99,0.00,,---,0.00,VWS V14.01,2013-07-19 07:45:00,
2013-07-19 02:50:00,70.8,70.5,29.94,NW,305,0.0,0.0,99,0.00,,---,0.00,VWS V14.01,2013-07-19 07:50:00,
2013-07-19 02:55:00,70.7,70.4,29.94,NW,305,0.0,0.0,99,0.00,,---,0.00,VWS V14.01,2013-07-19 07:55:00,
2013-07-19 03:00:00,70.7,70.4,29.94,NW,305,0.0,0.0,99,0.00,,---,0.00,VWS V14.01,2013-07-19 08:00:00,
2013-07-19 03:05:00,70.6,70.3,29.94,NW,305,0.0,0.0,99,0.00,,---,0.00,VWS V14.01,2013-07-19 08:05:00,
2013-07-19 03:10:00,70.5,70.2,29.94,NW,305,0.0,0.0,99,0.00,,---,0.00,VWS V14.01,2013-07-19 08:10:00,
2013-07-19 03:15:00,70.5,70.2,29.94,NW,305,0.0,0.0,99,0.00,,---,0.00,VWS V14.01,2013-07-19 08:15:00,
2013-07-19 03:20:00,70.5,70.2,29.94,NW,305,0.0,0.0,99,0.00,,---,0.00,VWS V14.01,2013-07-19 08:20:00,
2013-07-19 03:25:00,70.5,70.2,29.94,NW,304,0.0,0.0,99,0.00,,---,0.00,VWS V14.01,2013-07-19 08:25:00,
2013-07-19 03:30:00,70.4,70.1,29.94,NW,305,0.0,0.0,99,0.00,,---,0.00,VWS V14.01,2013-07-19 08:30:00,
2013-07-19 03:35:00,70.3,70.0,29.94,NW,305,0.0,0.0,99,0.00,,---,0.00,VWS V14.01,2013-07-19 08:35:00,
2013-07-19 03:40:00,70.1,69.8,29.94,NW,305,0.0,0.0,99,0.00,,---,0.00,VWS V14.01,2013-07-19 08:40:00,
2013-07-19 03:45:00,70.1,69.8,29.94,NW,305,0.0,0.0,99,0.00,,---,0.00,VWS V14.01,2013-07-19 08:45:00,
2013-07-19 03:50:00,70.1,69.8,29.94,NW,305,0.0,0.0,99,0.00,,---,0.00,VWS V14.01,2013-07-19 08:50:00,
2013-07-19 03:55:00,70.1,69.8,29.94,NW,305,0.0,0.0,99,0.00,,---,0.00,VWS V14.01,2013-07-19 08:55:00,
2013-07-19 04:00:00,70.1,69.8,29.94,NW,304,0.0,0.0,99,0.00,,---,0.00,VWS V14.01,2013-07-19 09:00:00,
2013-07-19 04:05:00,70.0,69.7,29.94,NW,304,0.0,0.0,99,0.00,,---,0.00,VWS V14.01,2013-07-19 09:05:00,
2013-07-19 04:10:00,70.1,69.8,29.94,NW,305,0.0,0.0,99,0.00,,---,0.00,VWS V14.01,2013-07-19 09:10:00,
2013-07-19 04:15:00,70.0,69.7,29.95,NW,305,0.0,0.0,99,0.00,,---,0.00,VWS V14.01,2013-07-19 09:15:00,
2013-07-19 04:20:00,69.9,69.6,29.95,NW,304,0.0,0.0,99,0.00,,---,0.00,VWS V14.01,2013-07-19 09:20:00,
2013-07-19 04:25:00,70.0,69.7,29.95,NW,305,0.0,0.0,99,0.00,,---,0.00,VWS V14.01,2013-07-19 09:25:00,
2013-07-19 04:30:00,69.9,69.6,29.95,NW,304,0.0,0.0,99,0.00,,---,0.00,VWS V14.01,2013-07-19 09:30:00,
2013-07-19 04:35:00,69.9,69.6,29.95,NW,304,0.0,0.0,99,0.00,,---,0.00,VWS V14.01,2013-07-19 09:35:00,
2013-07-19 04:40:00,69.9,69.6,29.94,NW,305,0.0,0.0,99,0.00,,---,0.00,VWS V14.01,2013-07-19 09:40:00,
2013-07-19 04:45:00,69.9,69.6,29.94,NW,305,0.0,0.0,99,0.00,,---,0.00,VWS V14.01,2013-07-19 09:45:00,
2013-07-19 04:50:00,70.0,69.7,29.94,NW,305,0.0,0.0,99,0.00,,---,0.00,VWS V14.01,2013-07-19 09:50:00,
2013-07-19 04:55:00,69.9,69.6,29.94,NW,305,0.0,0.0,99,0.00,,---,0.00,VWS V14.01,2013-07-19 09:55:00,
2013-07-19 05:00:00,69.8,69.5,29.94,NW,305,0.0,0.0,99,0.00,,---,0.00,VWS V14.01,2013-07-19 10:00:00,
2013-07-19 05:05:00,69.7,69.4,29.94,NW,304,0.0,0.0,99,0.00,,---,0.00,VWS V14.01,2013-07-19 10:05:00,
2013-07-19 05:10:00,69.7,69.4,29.94,NW,305,0.0,0.0,99,0.00,,---,0.00,VWS V14.01,2013-07-19 10:10:00,
2013-07-19 05:15:00,69.8,69.5,29.94,NW,305,0.0,0.0,99,0.00,,---,0.00,VWS V14.01,2013-07-19 10:15:00,
2013-07-19 05:20:00,69.8,69.5,29.94,NW,304,0.0,0.0,99,0.00,,---,0.00,VWS V14.01,2013-07-19 10:20:00,
2013-07-19 05:25:00,69.8,69.5,29.94,NW,305,0.0,0.0,99,0.00,,---,0.00,VWS V14.01,2013-07-19 10:25:00,
2013-07-19 05:30:00,69.8,69.5,29.94,NW,305,0.0,0.0,99,0.00,,---,0.00,VWS V14.01,2013-07-19 10:30:00,
2013-07-19 05:35:00,69.8,69.5,29.95,NW,304,0.0,0.0,99,0.00,,---,0.00,VWS V14.01,2013-07-19 10:35:00,
2013-07-19 05:40:00,69.8,69.5,29.94,NW,305,0.0,0.0,99,0.00,,---,0.00,VWS V14.01,2013-07-19 10:40:00,
2013-07-19 05:45:00,69.9,69.6,29.95,NW,305,0.0,0.0,99,0.00,,---,0.00,VWS V14.01,2013-07-19 10:45:00,
2013-07-19 05:50:00,70.0,69.7,29.95,NW,305,0.0,0.0,99,0.00,,---,0.00,VWS V14.01,2013-07-19 10:50:00,
2013-07-19 05:55:00,69.9,69.6,29.95,NW,305,0.0,0.0,99,0.00,,---,0.00,VWS V14.01,2013-07-19 10:55:00,
2013-07-19 06:00:00,70.1,69.8,29.95,NW,304,0.0,0.0,99,0.00,,---,0.00,VWS V14.01,2013-07-19 11:00:00,
2013-07-19 06:05:00,70.2,69.9,29.95,NW,304,0.0,0.0,99,0.00,,---,0.00,VWS V14.01,2013-07-19 11:05:00,
2013-07-19 06:10:00,70.4,70.4,29.95,NW,305,0.0,0.0,100,0.00,,---,0.00,VWS V14.01,2013-07-19 11:10:00,
2013-07-19 06:15:00,70.5,70.5,29.95,NW,305,0.0,0.0,100,0.00,,---,0.00,VWS V14.01,2013-07-19 11:15:00,
2013-07-19 06:20:00,70.6,70.6,29.96,NW,305,0.0,0.0,100,0.00,,---,0.00,VWS V14.01,2013-07-19 11:20:00,
2013-07-19 06:25:00,70.7,70.7,29.96,NW,305,0.0,0.0,100,0.00,,---,0.00,VWS V14.01,2013-07-19 11:25:00,
2013-07-19 06:30:00,70.9,70.9,29.96,NW,305,0.0,0.0,100,0.00,,---,0.00,VWS V14.01,2013-07-19 11:30:00,
2013-07-19 06:35:00,71.0,71.0,29.96,NW,304,0.0,0.0,100,0.00,,---,0.00,VWS V14.01,2013-07-19 11:35:00,
2013-07-19 06:40:00,71.1,71.1,29.97,NW,305,0.0,0.0,100,0.00,,---,0.00,VWS V14.01,2013-07-19 11:40:00,
2013-07-19 06:45:00,71.3,71.3,29.96,NW,305,0.0,0.0,100,0.00,,---,0.00,VWS V14.01,2013-07-19 11:45:00,
2013-07-19 06:50:00,71.2,71.2,29.96,NW,305,0.0,0.0,100,0.00,,---,0.00,VWS V14.01,2013-07-19 11:50:00,
2013-07-19 06:55:00,71.2,71.2,29.97,NW,305,0.0,0.0,100,0.00,,---,0.00,VWS V14.01,2013-07-19 11:55:00,
2013-07-19 07:00:00,71.4,71.4,29.97,NW,305,0.0,0.0,100,0.00,,---,0.00,VWS V14.01,2013-07-19 12:00:00,
2013-07-19 07:05:00,71.6,71.6,29.97,NW,304,0.0,0.0,100,0.00,,---,0.00,VWS V14.01,2013-07-19 12:05:00,
2013-07-19 07:10:00,72.0,72.0,29.97,NW,304,0.0,0.0,100,0.00,,---,0.00,VWS V14.01,2013-07-19 12:10:00,
2013-07-19 07:15:00,72.4,72.4,29.97,NW,304,0.0,0.0,100,0.00,,---,0.00,VWS V14.01,2013-07-19 12:15:00,
2013-07-19 07:20:00,72.9,72.9,29.97,WNW,293,0.0,0.0,100,0.00,,---,0.00,VWS V14.01,2013-07-19 12:20:00,
2013-07-19 07:25:00,73.5,73.5,29.97,WNW,291,0.0,0.0,100,0.00,,---,0.00,VWS V14.01,2013-07-19 12:25:00,
2013-07-19 07:30:00,73.8,73.8,29.97,WNW,294,0.0,1.0,100,0.00,,---,0.00,VWS V14.01,2013-07-19 12:30:00,
2013-07-19 07:35:00,73.8,73.8,29.97,WNW,293,0.0,0.0,100,0.00,,---,0.00,VWS V14.01,2013-07-19 12:35:00,
2013-07-19 07:40:00,74.2,74.2,29.98,WNW,294,0.0,1.0,100,0.00,,---,0.00,VWS V14.01,2013-07-19 12:40:00,
2013-07-19 07:45:00,74.4,74.4,29.98,WNW,294,0.0,1.0,100,0.00,,---,0.00,VWS V14.01,2013-07-19 12:45:00,
2013-07-19 07:50:00,74.6,74.6,29.98,WNW,293,0.0,1.0,100,0.00,,---,0.00,VWS V14.01,2013-07-19 12:50:00,
2013-07-19 07:55:00,74.9,74.9,29.99,WNW,294,0.0,1.0,100,0.00,,---,0.00,VWS V14.01,2013-07-19 12:55:00,
2013-07-19 08:00:00,75.1,75.1,29.99,WNW,300,0.0,1.0,100,0.00,,---,0.00,VWS V14.01,2013-07-19 13:00:00,
2013-07-19 08:05:00,75.4,75.4,29.99,WNW,300,0.0,0.0,100,0.00,,---,0.00,VWS V14.01,2013-07-19 13:05:00,
2013-07-19 08:09:00,75.7,75.7,29.99,WNW,300,0.0,0.0,100,0.00,,---,0.00,VWS V14.01,2013-07-19 13:09:00,
2013-07-19 08:14:00,76.0,76.0,29.99,WNW,300,0.0,1.0,100,0.00,,---,0.00,VWS V14.01,2013-07-19 13:14:00,
2013-07-19 08:19:00,76.0,76.0,29.99,WNW,283,0.0,1.0,100,0.00,,---,0.00,VWS V14.01,2013-07-19 13:19:00,
2013-07-19 08:24:00,76.2,76.2,29.99,WNW,282,0.0,1.0,100,0.00,,---,0.00,VWS V14.01,2013-07-19 13:24:00,
2013-07-19 08:26:00,76.2,76.2,29.99,West,271,0.0,1.0,100,0.00,,---,0.00,VWS V14.01,2013-07-19 13:26:00,
2013-07-19 08:31:00,76.6,76.6,29.99,WNW,285,0.0,1.0,100,0.00,,---,0.00,VWS V14.01,2013-07-19 13:31:00,
2013-07-19 08:36:00,76.9,76.9,29.99,WNW,288,0.0,0.0,100,0.00,,---,0.00,VWS V14.01,2013-07-19 13:36:00,
2013-07-19 08:41:00,77.4,77.4,29.99,WNW,288,0.0,0.0,100,0.00,,---,0.00,VWS V14.01,2013-07-19 13:41:00,
2013-07-19 08:46:00,78.0,78.0,29.99,West,264,0.0,1.0,100,0.00,,---,0.00,VWS V14.01,2013-07-19 13:46:00,
2013-07-19 08:51:00,78.5,78.5,29.99,West,270,0.0,2.0,100,0.00,,---,0.00,VWS V14.01,2013-07-19 13:51:00,
2013-07-19 08:56:00,79.1,78.8,29.99,WNW,287,0.0,2.0,99,0.00,,---,0.00,VWS V14.01,2013-07-19 13:56:00,
2013-07-19 09:01:00,80.1,79.8,29.99,WNW,288,0.0,2.0,99,0.00,,---,0.00,VWS V14.01,2013-07-19 14:01:00,
2013-07-19 09:06:00,80.8,79.9,29.99,NNE,22,0.0,3.0,97,0.00,,---,0.00,VWS V14.01,2013-07-19 14:06:00,
2013-07-19 09:11:00,81.8,80.9,29.99,NNE,22,0.0,3.0,97,0.00,,---,0.00,VWS V14.01,2013-07-19 14:11:00,
2013-07-19 09:16:00,82.4,80.5,29.99,WSW,246,2.0,3.0,94,0.00,,---,0.00,VWS V14.01,2013-07-19 14:16:00,
2013-07-19 09:20:00,82.8,79.9,29.99,NW,311,0.0,3.0,91,0.00,,---,0.00,VWS V14.01,2013-07-19 14:20:00,
2013-07-19 09:25:00,83.4,80.2,29.99,West,276,0.0,3.0,90,0.00,,---,0.00,VWS V14.01,2013-07-19 14:25:00,
2013-07-19 09:30:00,83.9,80.3,29.98,North,360,0.0,3.0,89,0.00,,---,0.00,VWS V14.01,2013-07-19 14:30:00,
2013-07-19 09:35:00,84.3,80.4,29.98,West,266,0.0,2.0,88,0.00,,---,0.00,VWS V14.01,2013-07-19 14:35:00,
2013-07-19 09:40:00,84.8,80.8,29.99,West,267,1.0,2.0,88,0.00,,---,0.00,VWS V14.01,2013-07-19 14:40:00,
2013-07-19 09:45:00,85.3,80.3,29.99,WSW,257,0.0,2.0,85,0.00,,---,0.00,VWS V14.01,2013-07-19 14:45:00,
2013-07-19 09:50:00,85.8,78.9,29.99,West,274,1.0,2.0,80,0.00,,---,0.00,VWS V14.01,2013-07-19 14:50:00,
2013-07-19 09:55:00,86.4,80.3,29.99,ENE,72,0.0,2.0,82,0.00,,---,0.00,VWS V14.01,2013-07-19 14:55:00,
2013-07-19 10:00:00,86.7,80.9,29.99,West,267,0.0,3.0,83,0.00,,---,0.00,VWS V14.01,2013-07-19 15:00:00,
2013-07-19 10:05:00,86.6,78.1,29.99,NW,325,0.0,0.0,76,0.00,,---,0.00,VWS V14.01,2013-07-19 15:05:00,
2013-07-19 10:10:00,86.9,79.6,29.99,NNE,29,0.0,2.0,79,0.00,,---,0.00,VWS V14.01,2013-07-19 15:10:00,
2013-07-19 10:15:00,87.4,78.9,29.99,NW,307,0.0,2.0,76,0.00,,---,0.00,VWS V14.01,2013-07-19 15:15:00,
2013-07-19 10:20:00,88.2,80.1,29.99,NW,307,0.0,2.0,77,0.00,,---,0.00,VWS V14.01,2013-07-19 15:20:00,
2013-07-19 10:25:00,88.3,79.0,29.99,SW,228,0.0,2.0,74,0.00,,---,0.00,VWS V14.01,2013-07-19 15:25:00,
2013-07-19 10:30:00,87.8,79.7,29.99,SW,235,0.0,2.0,77,0.00,,---,0.00,VWS V14.01,2013-07-19 15:30:00,
2013-07-19 10:35:00,87.8,78.5,29.99,WSW,243,2.0,2.0,74,0.00,,---,0.00,VWS V14.01,2013-07-19 15:35:00,
2013-07-19 10:40:00,88.0,79.1,29.98,WNW,285,1.0,2.0,75,0.00,,---,0.00,VWS V14.01,2013-07-19 15:40:00,
2013-07-19 10:45:00,88.1,78.8,29.98,WNW,293,0.0,2.0,74,0.00,,---,0.00,VWS V14.01,2013-07-19 15:45:00,
2013-07-19 11:00:00,87.1,78.6,29.98,West,270,0.0,2.0,76,0.00,,---,0.00,VWS V14.01,2013-07-19 16:00:00,
2013-07-19 11:38:00,86.5,78.4,29.96,West,270,0.0,0.0,77,0.00,,---,0.00,VWS V14.01,2013-07-19 16:38:00,
2013-07-19 11:43:00,85.8,78.5,29.96,WNW,285,0.0,2.0,79,0.00,,---,0.00,VWS V14.01,2013-07-19 16:43:00,
2013-07-19 14:30:00,81.9,79.7,29.93,WSW,248,0.0,0.0,93,0.25,,---,0.72,VWS V14.01,2013-07-19 19:30:00,
2013-07-19 15:20:00,81.9,79.7,29.93,WSW,248,0.0,0.0,93,0.25,,---,0.72,VWS V14.01,2013-07-19 20:20:00,
2013-07-19 15:25:00,85.2,80.2,29.92,NW,309,0.0,0.0,85,0.00,,---,0.72,VWS V14.01,2013-07-19 20:25:00,
2013-07-19 15:30:00,83.2,77.9,29.93,WSW,255,0.0,1.0,84,0.00,,---,0.72,VWS V14.01,2013-07-19 20:30:00,
2013-07-19 15:35:00,81.3,77.1,29.95,WSW,249,0.0,1.0,87,0.16,,---,0.90,VWS V14.01,2013-07-19 20:35:00,
2013-07-19 15:40:00,79.0,75.2,29.95,WNW,293,0.0,2.0,88,0.58,,---,1.30,VWS V14.01,2013-07-19 20:40:00,
2013-07-19 15:45:00,77.3,74.5,29.93,WNW,285,1.0,2.0,91,0.80,,---,1.52,VWS V14.01,2013-07-19 20:45:00,
2013-07-19 15:50:00,76.1,73.9,29.93,West,280,0.0,2.0,93,0.93,,---,1.65,VWS V14.01,2013-07-19 20:50:00,
2013-07-19 15:55:00,75.6,73.8,29.93,West,280,0.0,2.0,94,1.00,,---,1.72,VWS V14.01,2013-07-19 20:55:00,
2013-07-19 16:00:00,75.1,73.6,29.92,East,82,0.0,3.0,95,1.09,,---,1.81,VWS V14.01,2013-07-19 21:00:00,
2013-07-19 16:05:00,74.6,73.1,29.92,East,81,0.0,1.0,95,1.07,,---,1.85,VWS V14.01,2013-07-19 21:05:00,
2013-07-19 16:10:00,74.4,73.2,29.92,East,82,0.0,1.0,96,1.11,,---,1.89,VWS V14.01,2013-07-19 21:10:00,
2013-07-19 16:15:00,74.6,73.7,29.91,East,82,0.0,1.0,97,1.16,,---,1.94,VWS V14.01,2013-07-19 21:15:00,
2013-07-19 16:20:00,74.8,73.9,29.90,East,81,0.0,1.0,97,1.17,,---,1.95,VWS V14.01,2013-07-19 21:20:00,
2013-07-19 16:25:00,75.1,74.2,29.90,East,81,0.0,1.0,97,1.17,,---,1.95,VWS V14.01,2013-07-19 21:25:00,
2013-07-19 16:30:00,75.5,74.9,29.90,East,81,0.0,1.0,98,1.17,,---,1.95,VWS V14.01,2013-07-19 21:30:00,
2013-07-19 16:35:00,76.1,75.5,29.90,West,280,1.0,1.0,98,1.17,,---,1.95,VWS V14.01,2013-07-19 21:35:00,
2013-07-19 16:40:00,76.5,75.9,29.91,WNW,294,0.0,1.0,98,1.17,,---,1.95,VWS V14.01,2013-07-19 21:40:00,
2013-07-19 16:45:00,76.7,75.8,29.91,West,274,0.0,2.0,97,1.17,,---,1.95,VWS V14.01,2013-07-19 21:45:00,
2013-07-19 16:50:00,77.2,76.3,29.91,WNW,288,0.0,2.0,97,1.17,,---,1.95,VWS V14.01,2013-07-19 21:50:00,
2013-07-19 16:55:00,77.6,76.7,29.91,WNW,288,0.0,2.0,97,1.17,,---,1.95,VWS V14.01,2013-07-19 21:55:00,
2013-07-19 17:00:00,77.8,76.6,29.91,WNW,288,0.0,2.0,96,1.17,,---,1.95,VWS V14.01,2013-07-19 22:00:00,
2013-07-19 17:05:00,78.0,76.8,29.91,WNW,288,0.0,0.0,96,0.10,,---,1.95,VWS V14.01,2013-07-19 22:05:00,
2013-07-19 17:10:00,78.5,77.6,29.90,WNW,288,0.0,0.0,97,0.10,,---,1.95,VWS V14.01,2013-07-19 22:10:00,
2013-07-19 17:15:00,78.9,77.7,29.90,WNW,294,0.0,1.0,96,0.10,,---,1.95,VWS V14.01,2013-07-19 22:15:00,
2013-07-19 17:20:00,79.5,78.3,29.90,WNW,293,0.0,1.0,96,0.10,,---,1.95,VWS V14.01,2013-07-19 22:20:00,
2013-07-19 17:25:00,79.9,78.3,29.89,West,273,0.0,1.0,95,0.10,,---,1.95,VWS V14.01,2013-07-19 22:25:00,
2013-07-19 17:30:00,80.4,78.8,29.89,West,272,0.0,1.0,95,0.10,,---,1.95,VWS V14.01,2013-07-19 22:30:00,
2013-07-19 17:35:00,80.9,79.3,29.89,ESE,122,0.0,0.0,95,0.00,,---,1.95,VWS V14.01,2013-07-19 22:35:00,
2013-07-19 17:40:00,81.1,79.2,29.89,WSW,255,0.0,2.0,94,0.00,,---,1.95,VWS V14.01,2013-07-19 22:40:00,
2013-07-19 17:45:00,80.8,78.6,29.88,WNW,290,0.0,2.0,93,0.00,,---,1.95,VWS V14.01,2013-07-19 22:45:00,
2013-07-19 17:50:00,80.4,78.2,29.88,East,81,1.0,2.0,93,0.00,,---,1.95,VWS V14.01,2013-07-19 22:50:00,
2013-07-19 17:55:00,80.2,78.0,29.88,WNW,301,0.0,2.0,93,0.00,,---,1.95,VWS V14.01,2013-07-19 22:55:00,
2013-07-19 18:00:00,80.1,78.2,29.88,NE,47,0.0,2.0,94,0.00,,---,1.95,VWS V14.01,2013-07-19 23:00:00,
2013-07-19 18:05:00,80.0,78.1,29.88,North,1,0.0,0.0,94,0.00,,---,1.95,VWS V14.01,2013-07-19 23:05:00,
2013-07-19 18:10:00,79.5,77.6,29.88,North,1,0.0,0.0,94,0.00,,---,1.95,VWS V14.01,2013-07-19 23:10:00,
2013-07-19 18:15:00,79.2,77.3,29.88,West,280,0.0,1.0,94,0.00,,---,1.95,VWS V14.01,2013-07-19 23:15:00,
2013-07-19 18:20:00,78.9,77.3,29.88,North,350,0.0,1.0,95,0.00,,---,1.95,VWS V14.01,2013-07-19 23:20:00,
2013-07-19 18:25:00,78.7,77.2,29.88,North,350,0.0,1.0,95,0.00,,---,1.95,VWS V14.01,2013-07-19 23:25:00,
2013-07-19 18:30:00,78.5,76.9,29.88,NW,318,0.0,2.0,95,0.00,,---,1.95,VWS V14.01,2013-07-19 23:30:00,
2013-07-19 18:35:00,78.3,76.8,29.88,ESE,109,0.0,0.0,95,0.00,,---,1.95,VWS V14.01,2013-07-19 23:35:00,
2013-07-19 18:40:00,78.0,76.5,29.88,ESE,109,0.0,0.0,95,0.00,,---,1.95,VWS V14.01,2013-07-19 23:40:00,
2013-07-19 18:45:00,78.0,76.8,29.89,ESE,109,0.0,0.0,96,0.00,,---,1.95,VWS V14.01,2013-07-19 23:45:00,
2013-07-19 18:50:00,77.9,76.7,29.89,WNW,293,0.0,1.0,96,0.00,,---,1.95,VWS V14.01,2013-07-19 23:50:00,
2013-07-19 18:55:00,77.7,76.5,29.89,WNW,295,0.0,1.0,96,0.00,,---,1.95,VWS V14.01,2013-07-19 23:55:00,
2013-07-19 19:00:00,77.5,76.3,29.89,WNW,293,0.0,1.0,96,0.00,,---,1.95,VWS V14.01,2013-07-20 00:00:00,
2013-07-19 19:05:00,77.2,76.0,29.89,WNW,293,0.0,0.0,96,0.00,,---,1.95,VWS V14.01,2013-07-20 00:05:00,
2013-07-19 19:10:00,77.0,75.8,29.89,WNW,293,0.0,0.0,96,0.00,,---,1.95,VWS V14.01,2013-07-20 00:10:00,
2013-07-19 19:15:00,76.8,75.9,29.89,WNW,294,0.0,0.0,97,0.00,,---,1.95,VWS V14.01,2013-07-20 00:15:00,
2013-07-19 19:20:00,76.8,75.9,29.90,WNW,294,0.0,0.0,97,0.00,,---,1.95,VWS V14.01,2013-07-20 00:20:00,
2013-07-19 19:25:00,76.6,75.7,29.90,WNW,293,0.0,0.0,97,0.00,,---,1.95,VWS V14.01,2013-07-20 00:25:00,
2013-07-19 19:30:00,76.5,75.6,29.89,WNW,295,0.0,0.0,97,0.00,,---,1.95,VWS V14.01,2013-07-20 00:30:00,
2013-07-19 19:35:00,76.3,75.4,29.90,WNW,295,0.0,0.0,97,0.00,,---,1.95,VWS V14.01,2013-07-20 00:35:00,
2013-07-19 19:39:00,76.3,75.4,29.90,WNW,295,0.0,0.0,97,0.00,,---,1.95,VWS V14.01,2013-07-20 00:39:00,
2013-07-19 19:44:00,76.2,75.3,29.90,WNW,294,0.0,0.0,97,0.00,,---,1.95,VWS V14.01,2013-07-20 00:44:00,
2013-07-19 19:49:00,76.2,75.3,29.90,WNW,293,0.0,0.0,97,0.00,,---,1.95,VWS V14.01,2013-07-20 00:49:00,
2013-07-19 19:54:00,76.2,75.3,29.90,WNW,294,0.0,0.0,97,0.00,,---,1.95,VWS V14.01,2013-07-20 00:54:00,
2013-07-19 19:59:00,76.2,75.6,29.90,WNW,294,0.0,0.0,98,0.00,,---,1.95,VWS V14.01,2013-07-20 00:59:00,
2013-07-19 20:04:00,76.1,75.5,29.90,WNW,295,0.0,0.0,98,0.00,,---,1.95,VWS V14.01,2013-07-20 01:04:00,
2013-07-19 20:09:00,76.0,75.4,29.90,WNW,293,0.0,0.0,98,0.00,,---,1.95,VWS V14.01,2013-07-20 01:09:00,
2013-07-19 20:14:00,75.8,75.2,29.90,WNW,295,0.0,0.0,98,0.00,,---,1.95,VWS V14.01,2013-07-20 01:14:00,
2013-07-19 20:19:00,75.8,75.2,29.89,WNW,293,0.0,0.0,98,0.00,,---,1.95,VWS V14.01,2013-07-20 01:19:00,
2013-07-19 20:24:00,75.7,75.1,29.90,WNW,294,0.0,0.0,98,0.00,,---,1.95,VWS V14.01,2013-07-20 01:24:00,
2013-07-19 20:29:00,75.7,75.1,29.89,WNW,293,0.0,0.0,98,0.00,,---,1.95,VWS V14.01,2013-07-20 01:29:00,
2013-07-19 20:34:00,75.6,75.0,29.90,WNW,294,0.0,0.0,98,0.00,,---,1.95,VWS V14.01,2013-07-20 01:34:00,
2013-07-19 20:39:00,75.5,74.9,29.89,WNW,293,0.0,0.0,98,0.00,,---,1.95,VWS V14.01,2013-07-20 01:39:00,
2013-07-19 20:44:00,75.3,74.7,29.90,WNW,293,0.0,0.0,98,0.00,,---,1.95,VWS V14.01,2013-07-20 01:44:00,
2013-07-19 20:49:00,75.1,74.5,29.90,WNW,295,0.0,0.0,98,0.00,,---,1.95,VWS V14.01,2013-07-20 01:49:00,
2013-07-19 20:54:00,75.0,74.4,29.90,WNW,293,0.0,0.0,98,0.00,,---,1.95,VWS V14.01,2013-07-20 01:54:00,
2013-07-19 20:59:00,75.0,74.4,29.90,WNW,295,0.0,0.0,98,0.00,,---,1.95,VWS V14.01,2013-07-20 01:59:00,
2013-07-19 21:04:00,75.0,74.4,29.90,WNW,294,0.0,0.0,98,0.00,,---,1.95,VWS V14.01,2013-07-20 02:04:00,
2013-07-19 21:09:00,74.8,74.2,29.91,WNW,295,0.0,0.0,98,0.00,,---,1.95,VWS V14.01,2013-07-20 02:09:00,
2013-07-19 21:14:00,74.8,74.2,29.91,WNW,294,0.0,0.0,98,0.00,,---,1.95,VWS V14.01,2013-07-20 02:14:00,
2013-07-19 21:19:00,74.8,74.2,29.91,WNW,293,0.0,0.0,98,0.00,,---,1.95,VWS V14.01,2013-07-20 02:19:00,
2013-07-19 21:24:00,74.8,74.2,29.91,WNW,294,0.0,0.0,98,0.00,,---,1.95,VWS V14.01,2013-07-20 02:24:00,
2013-07-19 21:29:00,74.7,74.1,29.91,WNW,295,0.0,0.0,98,0.00,,---,1.95,VWS V14.01,2013-07-20 02:29:00,
2013-07-19 21:34:00,74.7,74.1,29.91,WNW,295,0.0,0.0,98,0.00,,---,1.95,VWS V14.01,2013-07-20 02:34:00,
2013-07-19 21:39:00,74.8,74.5,29.91,WNW,295,0.0,0.0,99,0.00,,---,1.95,VWS V14.01,2013-07-20 02:39:00,
2013-07-19 21:44:00,74.9,74.6,29.91,WNW,294,0.0,0.0,99,0.00,,---,1.95,VWS V14.01,2013-07-20 02:44:00,
2013-07-19 21:49:00,75.0,74.7,29.91,WNW,293,0.0,0.0,99,0.00,,---,1.95,VWS V14.01,2013-07-20 02:49:00,
2013-07-19 21:54:00,75.0,74.7,29.91,WNW,293,0.0,0.0,99,0.00,,---,1.95,VWS V14.01,2013-07-20 02:54:00,
2013-07-19 21:59:00,74.9,74.6,29.91,WNW,294,0.0,0.0,99,0.00,,---,1.95,VWS V14.01,2013-07-20 02:59:00,
2013-07-19 22:04:00,74.9,74.6,29.90,WNW,293,0.0,0.0,99,0.00,,---,1.95,VWS V14.01,2013-07-20 03:04:00,
2013-07-19 22:09:00,74.8,74.5,29.90,WNW,294,0.0,0.0,99,0.00,,---,1.95,VWS V14.01,2013-07-20 03:09:00,
2013-07-19 22:14:00,74.8,74.5,29.90,WNW,295,0.0,0.0,99,0.00,,---,1.95,VWS V14.01,2013-07-20 03:14:00,
2013-07-19 22:19:00,74.7,74.4,29.90,WNW,295,0.0,0.0,99,0.00,,---,1.95,VWS V14.01,2013-07-20 03:19:00,
2013-07-19 22:24:00,74.5,74.2,29.90,WNW,295,0.0,0.0,99,0.00,,---,1.95,VWS V14.01,2013-07-20 03:24:00,
2013-07-19 22:29:00,74.4,74.1,29.90,WNW,295,0.0,0.0,99,0.00,,---,1.95,VWS V14.01,2013-07-20 03:29:00,
2013-07-19 22:34:00,74.3,74.0,29.90,WNW,295,0.0,0.0,99,0.00,,---,1.95,VWS V14.01,2013-07-20 03:34:00,
2013-07-19 22:39:00,74.3,74.0,29.90,WNW,295,0.0,0.0,99,0.00,,---,1.95,VWS V14.01,2013-07-20 03:39:00,
2013-07-19 22:44:00,74.2,73.9,29.91,WNW,295,0.0,0.0,99,0.00,,---,1.95,VWS V14.01,2013-07-20 03:44:00,
2013-07-19 22:49:00,74.0,73.7,29.91,WNW,295,0.0,0.0,99,0.00,,---,1.95,VWS V14.01,2013-07-20 03:49:00,
2013-07-19 22:54:00,73.9,73.6,29.91,WNW,295,0.0,0.0,99,0.00,,---,1.95,VWS V14.01,2013-07-20 03:54:00,
2013-07-19 22:59:00,73.9,73.6,29.91,WNW,295,0.0,0.0,99,0.00,,---,1.95,VWS V14.01,2013-07-20 03:59:00,
2013-07-19 23:01:00,73.9,73.6,29.91,WNW,295,0.0,0.0,99,0.00,,---,1.95,VWS V14.01,2013-07-20 04:01:00,
2013-07-19 23:06:00,73.8,73.5,29.91,WNW,295,0.0,0.0,99,0.00,,---,1.95,VWS V14.01,2013-07-20 04:06:00,
2013-07-19 23:11:00,73.7,73.4,29.91,WNW,295,0.0,0.0,99,0.00,,---,1.95,VWS V14.01,2013-07-20 04:11:00,
2013-07-19 23:16:00,73.7,73.4,29.91,WNW,295,0.0,0.0,99,0.00,,---,1.95,VWS V14.01,2013-07-20 04:16:00,
2013-07-19 23:21:00,73.6,73.3,29.91,WNW,295,0.0,0.0,99,0.00,,---,1.95,VWS V14.01,2013-07-20 04:21:00,
2013-07-19 23:26:00,73.5,73.2,29.91,WNW,295,0.0,0.0,99,0.00,,---,1.95,VWS V14.01,2013-07-20 04:26:00,
2013-07-19 23:31:00,73.4,73.1,29.91,WNW,295,0.0,0.0,99,0.00,,---,1.95,VWS V14.01,2013-07-20 04:31:00,
2013-07-19 23:36:00,73.6,73.3,29.91,WNW,295,0.0,0.0,99,0.00,,---,1.95,VWS V14.01,2013-07-20 04:36:00,
2013-07-19 23:41:00,73.7,73.4,29.91,WNW,293,0.0,0.0,99,0.00,,---,1.95,VWS V14.01,2013-07-20 04:41:00,
2013-07-19 23:46:00,73.7,73.4,29.91,WNW,295,0.0,0.0,99,0.00,,---,1.95,VWS V14.01,2013-07-20 04:46:00,
2013-07-19 23:51:00,73.7,73.4,29.91,WNW,295,0.0,0.0,99,0.00,,---,1.95,VWS V14.01,2013-07-20 04:51:00,
2013-07-19 23:56:00,73.7,73.4,29.91,WNW,294,0.0,0.0,99,0.00,,---,1.95,VWS V14.01,2013-07-20 04:56:00,